TAF and METAR

Decoding for American and Canadian METARs and TAFs is not fully implemented.
No METAR available for Pond Inlet Airport

TAF for Pond Inlet Airport

TAF CYIO 181238Z 1813/1901 18005KT P6SM BKN040 TEMPO 1813/1901 5SM -SN BKN020 BKN040 RMK FCST BASED ON AUTO OBS. NXT FCST BY 181900Z
Report created 18. apr 14:38

between 18. apr 15:00 - 19. apr 03:00

wind 5 knots from S (180°)
Pond Inlet Airport in Canada at 57m

Latest 5 airports